createdAt,value
2023-03-18T00:00:23.705Z,100893.94
2023-03-18T00:02:50.175Z,100892.19
2023-03-18T00:05:16.928Z,100903.50
2023-03-18T00:07:43.374Z,100909.56
2023-03-18T00:10:12.034Z,100913.81
2023-03-18T00:12:40.407Z,100907.41
2023-03-18T00:15:09.177Z,100912.41
2023-03-18T00:17:37.688Z,100917.22
2023-03-18T00:20:06.895Z,100909.44
2023-03-18T00:22:37.813Z,100911.63
2023-03-18T00:25:07.808Z,100913.81
2023-03-18T00:27:34.969Z,100916.25
2023-03-18T00:30:01.983Z,100920.25
2023-03-18T00:32:29.072Z,100919.25
2023-03-18T00:34:57.007Z,100922.72
2023-03-18T00:37:31.310Z,100919.63
2023-03-18T00:40:17.734Z,100922.03
2023-03-18T00:42:47.774Z,100930.72
2023-03-18T00:45:17.185Z,100938.59
2023-03-18T00:47:44.279Z,100937.59
2023-03-18T00:50:11.890Z,100938.44
2023-03-18T00:52:39.571Z,100931.16
2023-03-18T00:55:07.047Z,100917.63
2023-03-18T00:57:33.928Z,100916.28
2023-03-18T01:00:00.719Z,100930.38
2023-03-18T01:02:29.634Z,100917.09
2023-03-18T01:04:57.978Z,100918.16
2023-03-18T01:07:25.167Z,100913.22
2023-03-18T01:09:51.665Z,100915.53
2023-03-18T01:12:18.539Z,100915.28
2023-03-18T01:14:45.016Z,100913.72
2023-03-18T01:17:11.608Z,100915.03
2023-03-18T01:19:38.870Z,100917.16
2023-03-18T01:22:05.692Z,100914.03
2023-03-18T01:24:32.305Z,100922.13
2023-03-18T01:27:00.126Z,100921.41
2023-03-18T01:29:26.637Z,100921.41
2023-03-18T01:31:54.916Z,100923.50
2023-03-18T01:34:21.799Z,100924.59
2023-03-18T01:36:48.463Z,100919.91
2023-03-18T01:39:15.568Z,100926.97
2023-03-18T01:41:42.398Z,100926.19
2023-03-18T01:44:17.596Z,100925.13
2023-03-18T01:46:48.650Z,100925.69
2023-03-18T01:49:38.339Z,100922.56
2023-03-18T01:52:22.805Z,100922.84
2023-03-18T01:54:56.436Z,100920.22
2023-03-18T01:57:24.133Z,100919.47
2023-03-18T01:59:53.257Z,100914.25
2023-03-18T02:02:20.779Z,100920.50
2023-03-18T02:04:50.752Z,100927.56
2023-03-18T02:07:23.470Z,100924.19
2023-03-18T02:09:52.217Z,100920.78
2023-03-18T02:12:24.219Z,100926.78
2023-03-18T02:14:53.091Z,100922.59
2023-03-18T02:17:24.678Z,100926.00
2023-03-18T02:20:10.514Z,100926.00
2023-03-18T02:22:44.522Z,100937.22
2023-03-18T02:25:31.827Z,100936.72
2023-03-18T02:28:03.376Z,100934.88
2023-03-18T02:30:38.974Z,100937.22
2023-03-18T02:33:07.470Z,100942.44
2023-03-18T02:35:36.108Z,100936.91
2023-03-18T02:38:03.291Z,100933.53
2023-03-18T02:40:33.975Z,100936.16
2023-03-18T02:43:16.894Z,100928.31
2023-03-18T02:45:55.632Z,100933.28
2023-03-18T02:48:26.121Z,100941.88
2023-03-18T02:50:53.870Z,100939.53
2023-03-18T02:53:20.392Z,100946.59
2023-03-18T02:55:47.438Z,100940.88
2023-03-18T02:58:14.170Z,100935.66
2023-03-18T03:00:40.727Z,100942.44
2023-03-18T03:03:07.537Z,100938.25
2023-03-18T03:05:34.929Z,100940.88
2023-03-18T03:08:02.514Z,100937.75
2023-03-18T03:10:29.658Z,100940.88
2023-03-18T03:12:56.986Z,100945.53
2023-03-18T03:15:24.146Z,100955.97
2023-03-18T03:17:50.702Z,100949.47
2023-03-18T03:20:18.206Z,100941.63
2023-03-18T03:22:45.249Z,100944.53
2023-03-18T03:25:12.549Z,100954.69
2023-03-18T03:27:39.115Z,100954.47
2023-03-18T03:30:09.780Z,100958.63
2023-03-18T03:32:36.566Z,100965.16
2023-03-18T03:35:05.271Z,100965.66
2023-03-18T03:37:31.761Z,100962.00
2023-03-18T03:40:00.038Z,100962.78
2023-03-18T03:42:26.585Z,100963.31
2023-03-18T03:44:53.117Z,100967.94
2023-03-18T03:47:21.457Z,100973.66
2023-03-18T03:49:48.152Z,100973.66
2023-03-18T03:52:14.736Z,100978.63
2023-03-18T03:54:41.906Z,100975.50
2023-03-18T03:57:09.035Z,100968.97
2023-03-18T03:59:35.806Z,100976.78
2023-03-18T04:02:02.368Z,100982.00
2023-03-18T04:04:29.618Z,100975.75
2023-03-18T04:06:56.296Z,100985.13
2023-03-18T04:09:22.869Z,100985.13
2023-03-18T04:11:49.449Z,100984.84
2023-03-18T04:14:16.433Z,100989.28
2023-03-18T04:16:44.763Z,100980.41
2023-03-18T04:19:11.313Z,100986.13
2023-03-18T04:21:37.815Z,100979.09
2023-03-18T04:24:04.949Z,100990.31
2023-03-18T04:26:31.384Z,100987.44
2023-03-18T04:28:57.935Z,100988.97
2023-03-18T04:31:24.510Z,100986.34
2023-03-18T04:33:51.192Z,100987.13
2023-03-18T04:36:17.691Z,100982.97
2023-03-18T04:38:44.602Z,100989.22
2023-03-18T04:41:11.105Z,100983.50
2023-03-18T04:43:37.531Z,100987.97
2023-03-18T04:46:04.140Z,100984.59
2023-03-18T04:48:30.637Z,100981.19
2023-03-18T04:50:57.189Z,100989.78
2023-03-18T04:53:23.640Z,100984.06
2023-03-18T04:55:50.916Z,100981.72
2023-03-18T04:58:17.840Z,100993.44
2023-03-18T05:00:45.506Z,100987.72
2023-03-18T05:03:12.705Z,100995.53
2023-03-18T05:05:39.620Z,100991.41
2023-03-18T05:08:07.503Z,100994.28
2023-03-18T05:10:34.340Z,100993.78
2023-03-18T05:13:02.044Z,101002.38
2023-03-18T05:15:28.605Z,100999.25
2023-03-18T05:17:55.125Z,101007.06
2023-03-18T05:20:21.645Z,101004.72
2023-03-18T05:22:48.120Z,101005.81
2023-03-18T05:25:14.706Z,101008.69
2023-03-18T05:27:41.867Z,101006.84
2023-03-18T05:30:11.020Z,101012.06
2023-03-18T05:32:38.132Z,101018.84
2023-03-18T05:35:05.890Z,101031.88
2023-03-18T05:37:32.383Z,101032.66
2023-03-18T05:39:58.883Z,101033.16
2023-03-18T05:42:25.528Z,101020.13
2023-03-18T05:44:52.017Z,101026.91
2023-03-18T05:47:18.490Z,101034.72
2023-03-18T05:49:45.223Z,101038.88
2023-03-18T05:52:11.846Z,101040.44
2023-03-18T05:54:38.760Z,101039.69
2023-03-18T05:57:05.273Z,101043.56
2023-03-18T05:59:31.818Z,101043.56
2023-03-18T06:01:58.353Z,101033.13
2023-03-18T06:04:27.096Z,101046.69
2023-03-18T06:06:55.066Z,101048.22
2023-03-18T06:09:22.382Z,101047.44
2023-03-18T06:11:49.356Z,101053.94
2023-03-18T06:14:15.832Z,101054.44
2023-03-18T06:16:42.876Z,101059.66
2023-03-18T06:19:10.870Z,101058.38
2023-03-18T06:21:41.112Z,101051.81
2023-03-18T06:24:08.350Z,101048.94
2023-03-18T06:26:35.223Z,101049.97
2023-03-18T06:29:01.847Z,101055.44
2023-03-18T06:31:28.374Z,101065.06
2023-03-18T06:33:55.201Z,101078.34
2023-03-18T06:36:22.530Z,101080.16
2023-03-18T06:38:49.367Z,101092.97
2023-03-18T06:41:16.355Z,101091.88
2023-03-18T06:43:43.425Z,101094.50
2023-03-18T06:46:10.601Z,101098.38
2023-03-18T06:48:43.144Z,101093.97
2023-03-18T06:51:11.137Z,101090.78
2023-03-18T06:53:38.696Z,101093.06
2023-03-18T06:56:06.225Z,101095.34
2023-03-18T06:58:32.827Z,101087.47
2023-03-18T07:00:59.412Z,101085.88
2023-03-18T07:03:27.301Z,101091.03
2023-03-18T07:05:54.367Z,101109.78
2023-03-18T07:08:21.006Z,101108.94
2023-03-18T07:10:47.471Z,101106.31
2023-03-18T07:13:15.385Z,101107.56
2023-03-18T07:15:42.825Z,101108.00
2023-03-18T07:18:12.126Z,101112.34
2023-03-18T07:20:38.792Z,101109.88
2023-03-18T07:23:05.304Z,101121.63
2023-03-18T07:25:32.627Z,101120.56
2023-03-18T07:28:03.259Z,101120.34
2023-03-18T07:30:30.512Z,101122.44
2023-03-18T07:32:57.695Z,101135.00
2023-03-18T07:35:24.351Z,101133.91
2023-03-18T07:37:51.381Z,101130.41
2023-03-18T07:40:18.019Z,101136.09
2023-03-18T07:42:44.867Z,101139.63
2023-03-18T07:45:11.497Z,101140.59
2023-03-18T07:47:38.389Z,101139.38
2023-03-18T07:50:05.785Z,101144.34
2023-03-18T07:52:32.423Z,101144.25
2023-03-18T07:54:58.927Z,101147.72
2023-03-18T07:57:26.103Z,101146.75
2023-03-18T07:59:52.720Z,101152.53
2023-03-18T08:02:20.398Z,101151.00
2023-03-18T08:04:46.970Z,101145.13
2023-03-18T08:07:14.038Z,101144.34
2023-03-18T08:09:40.766Z,101149.34
2023-03-18T08:12:08.567Z,101153.00
2023-03-18T08:14:35.454Z,101147.97
2023-03-18T08:17:02.710Z,101148.94
2023-03-18T08:19:29.529Z,101146.09
2023-03-18T08:21:56.036Z,101147.75
2023-03-18T08:24:22.699Z,101152.03
2023-03-18T08:26:49.516Z,101144.63
2023-03-18T08:29:16.093Z,101152.28
2023-03-18T08:31:43.034Z,101146.34
2023-03-18T08:34:10.618Z,101141.88
2023-03-18T08:36:37.544Z,101149.63
2023-03-18T08:39:05.372Z,101142.81
2023-03-18T08:41:32.371Z,101148.38
2023-03-18T08:43:59.060Z,101151.44
2023-03-18T08:46:25.865Z,101156.53
2023-03-18T08:48:54.396Z,101151.63
2023-03-18T08:51:24.874Z,101139.91
2023-03-18T08:53:51.579Z,101147.19
2023-03-18T08:56:18.100Z,101146.84
2023-03-18T08:58:45.813Z,101159.16
2023-03-18T09:01:13.167Z,101155.66
2023-03-18T09:03:40.049Z,101146.13
2023-03-18T09:06:07.006Z,101143.56
2023-03-18T09:08:34.145Z,101140.97
2023-03-18T09:11:00.685Z,101153.38
2023-03-18T09:13:27.725Z,101152.09
2023-03-18T09:15:54.620Z,101162.91
2023-03-18T09:18:22.846Z,101167.44
2023-03-18T09:20:49.522Z,101166.63
2023-03-18T09:23:18.196Z,101159.94
2023-03-18T09:25:46.645Z,101173.75
2023-03-18T09:28:14.450Z,101171.22
2023-03-18T09:30:42.499Z,101178.09
2023-03-18T09:33:11.484Z,101173.94
2023-03-18T09:35:38.567Z,101184.75
2023-03-18T09:38:05.400Z,101182.31
2023-03-18T09:40:38.517Z,101195.31
2023-03-18T09:43:29.893Z,101182.88
2023-03-18T09:46:05.708Z,101183.59
2023-03-18T09:48:56.943Z,101185.34
2023-03-18T09:51:23.589Z,101185.47
2023-03-18T09:53:55.956Z,101189.47
2023-03-18T09:56:34.879Z,101196.63
2023-03-18T09:59:16.571Z,101201.03
2023-03-18T10:01:46.494Z,101201.81
2023-03-18T10:04:52.432Z,101191.81
2023-03-18T10:07:23.774Z,101204.75
2023-03-18T10:09:59.480Z,101200.97
2023-03-18T10:12:35.697Z,101194.81
2023-03-18T10:15:23.847Z,101193.63
2023-03-18T10:18:03.964Z,101202.03
2023-03-18T10:20:36.386Z,101207.63
2023-03-18T10:23:26.113Z,101201.47
2023-03-18T10:25:56.002Z,101204.69
2023-03-18T10:28:41.479Z,101201.13
2023-03-18T10:31:23.610Z,101201.44
2023-03-18T10:34:23.025Z,101193.53
2023-03-18T10:37:05.538Z,101195.25
2023-03-18T10:39:35.282Z,101188.91
2023-03-18T10:42:19.453Z,101201.41
2023-03-18T10:44:47.455Z,101201.44
2023-03-18T10:47:21.034Z,101199.09
2023-03-18T10:50:17.722Z,101191.59
2023-03-18T10:53:03.638Z,101180.75
2023-03-18T10:55:36.205Z,101186.81
2023-03-18T10:58:15.465Z,101186.50
2023-03-18T11:00:42.546Z,101179.28
2023-03-18T11:03:20.119Z,101179.44
2023-03-18T11:05:47.889Z,101181.59
2023-03-18T11:08:36.951Z,101181.50
2023-03-18T11:11:33.314Z,101178.97
2023-03-18T11:14:04.902Z,101185.50
2023-03-18T11:16:46.104Z,101180.69
2023-03-18T11:19:39.645Z,101184.44
2023-03-18T11:22:11.106Z,101181.81
2023-03-18T11:24:44.784Z,101182.50
2023-03-18T11:27:17.024Z,101185.47
2023-03-18T11:30:41.078Z,101188.13
2023-03-18T11:33:10.576Z,101192.00
2023-03-18T11:35:57.658Z,101186.69
2023-03-18T11:38:24.378Z,101194.88
2023-03-18T11:40:52.012Z,101189.78
2023-03-18T11:43:22.202Z,101195.56
2023-03-18T11:46:04.746Z,101195.13
2023-03-18T11:48:38.071Z,101198.22
2023-03-18T11:51:33.550Z,101194.34
2023-03-18T11:54:13.451Z,101186.88
2023-03-18T11:56:47.104Z,101185.47
2023-03-18T11:59:29.564Z,101182.38
2023-03-18T12:02:22.714Z,101189.38
2023-03-18T12:05:03.313Z,101179.56
2023-03-18T12:07:43.029Z,101185.16
2023-03-18T12:10:29.738Z,101179.88
2023-03-18T12:13:29.793Z,101178.63
2023-03-18T12:16:28.802Z,101169.41
2023-03-18T12:18:58.777Z,101164.13
2023-03-18T12:21:34.930Z,101173.25
2023-03-18T12:24:20.696Z,101172.25
2023-03-18T12:27:09.066Z,101178.63
2023-03-18T12:29:57.244Z,101179.72
2023-03-18T12:32:38.907Z,101179.72
2023-03-18T12:35:16.061Z,101184.50
2023-03-18T12:37:55.970Z,101186.25
2023-03-18T12:40:30.166Z,101194.53
2023-03-18T12:43:24.367Z,101187.94
2023-03-18T12:45:58.495Z,101184.38
2023-03-18T12:48:43.771Z,101184.13
2023-03-18T12:51:15.365Z,101181.03
2023-03-18T12:53:49.025Z,101179.22
2023-03-18T12:56:23.745Z,101184.50
2023-03-18T12:59:07.461Z,101185.75
2023-03-18T13:01:54.383Z,101188.16
2023-03-18T13:04:24.692Z,101186.03
2023-03-18T13:07:03.976Z,101188.41
2023-03-18T13:09:39.945Z,101191.50
2023-03-18T13:12:31.738Z,101184.41
2023-03-18T13:15:00.747Z,101181.16
2023-03-18T13:17:33.086Z,101176.66
2023-03-18T13:20:16.358Z,101180.41
2023-03-18T13:22:43.096Z,101182.56
2023-03-18T13:25:47.047Z,101186.25
2023-03-18T13:28:16.554Z,101191.53
2023-03-18T13:31:17.524Z,101187.03
2023-03-18T13:33:53.324Z,101186.72
2023-03-18T13:36:46.557Z,101183.13
2023-03-18T13:39:26.839Z,101188.09
2023-03-18T13:42:23.989Z,101188.13
2023-03-18T13:45:10.750Z,101184.56
2023-03-18T13:47:40.468Z,101189.94
2023-03-18T13:50:19.032Z,101184.34
2023-03-18T13:52:48.877Z,101189.00
2023-03-18T13:55:35.327Z,101178.72
2023-03-18T13:58:04.860Z,101186.94
2023-03-18T14:00:38.446Z,101177.91
2023-03-18T14:03:30.634Z,101172.94
2023-03-18T14:06:09.187Z,101173.09
2023-03-18T14:08:44.971Z,101165.94
2023-03-18T14:11:14.849Z,101164.66
2023-03-18T14:13:42.338Z,101160.16
2023-03-18T14:16:15.161Z,101155.31
2023-03-18T14:18:43.069Z,101150.41
2023-03-18T14:21:25.035Z,101154.47
2023-03-18T14:24:13.408Z,101160.41
2023-03-18T14:26:41.201Z,101162.91
2023-03-18T14:29:07.687Z,101155.31
2023-03-18T14:31:52.127Z,101152.84
2023-03-18T14:34:18.897Z,101162.19
2023-03-18T14:36:54.459Z,101155.38
2023-03-18T14:39:33.971Z,101151.16
2023-03-18T14:42:03.302Z,101152.53
2023-03-18T14:44:40.694Z,101144.91
2023-03-18T14:47:35.584Z,101136.06
2023-03-18T14:50:15.109Z,101134.81
2023-03-18T14:52:45.117Z,101129.97
2023-03-18T14:55:24.489Z,101119.78
2023-03-18T14:57:52.617Z,101128.22
2023-03-18T15:00:22.257Z,101119.59
2023-03-18T15:03:00.811Z,101119.84
2023-03-18T15:05:35.629Z,101121.00
2023-03-18T15:08:07.011Z,101126.31
2023-03-18T15:10:33.608Z,101112.88
2023-03-18T15:13:04.493Z,101102.16
2023-03-18T15:15:32.065Z,101108.88
2023-03-18T15:18:07.308Z,101111.34
2023-03-18T15:20:36.287Z,101105.63
2023-03-18T15:23:08.059Z,101110.97
2023-03-18T15:25:35.885Z,101106.47
2023-03-18T15:28:03.334Z,101107.88
2023-03-18T15:30:33.756Z,101110.81
2023-03-18T15:33:16.837Z,101105.09
2023-03-18T15:35:44.673Z,101104.97
2023-03-18T15:38:17.389Z,101108.50
2023-03-18T15:40:52.527Z,101098.88
2023-03-18T15:43:45.054Z,101106.94
2023-03-18T15:46:27.548Z,101102.00
2023-03-18T15:48:56.164Z,101105.09
2023-03-18T15:51:44.956Z,101103.69
2023-03-18T15:54:26.556Z,101098.59
2023-03-18T15:56:55.253Z,101097.34
2023-03-18T15:59:31.009Z,101092.84
2023-03-18T16:01:59.242Z,101100.91
2023-03-18T16:04:30.249Z,101101.09
2023-03-18T16:06:56.723Z,101087.13
2023-03-18T16:09:25.108Z,101096.38
2023-03-18T16:12:02.385Z,101093.47
2023-03-18T16:14:37.772Z,101098.22
2023-03-18T16:17:04.218Z,101091.69
2023-03-18T16:19:30.952Z,101104.19
2023-03-18T16:21:58.704Z,101101.56
2023-03-18T16:24:25.989Z,101097.97
2023-03-18T16:26:53.307Z,101110.00
2023-03-18T16:29:27.883Z,101100.72
2023-03-18T16:31:54.388Z,101102.69
2023-03-18T16:34:21.932Z,101107.16
2023-03-18T16:36:50.818Z,101100.78
2023-03-18T16:39:19.138Z,101110.34
2023-03-18T16:41:47.460Z,101110.16
2023-03-18T16:44:16.983Z,101106.75
2023-03-18T16:46:46.851Z,101113.16
2023-03-18T16:49:31.294Z,101094.44
2023-03-18T16:51:58.347Z,101100.13
2023-03-18T16:54:32.468Z,101102.69
2023-03-18T16:57:02.139Z,101111.28
2023-03-18T16:59:31.569Z,101108.31
2023-03-18T17:01:58.063Z,101112.13
2023-03-18T17:04:32.645Z,101108.03
2023-03-18T17:07:01.979Z,101103.47
2023-03-18T17:09:28.418Z,101104.16
2023-03-18T17:12:03.859Z,101105.84
2023-03-18T17:14:38.567Z,101116.44
2023-03-18T17:17:08.315Z,101110.81
2023-03-18T17:19:35.485Z,101106.75
2023-03-18T17:22:02.939Z,101113.66
2023-03-18T17:24:29.405Z,101111.63
2023-03-18T17:26:55.961Z,101102.28
2023-03-18T17:29:28.005Z,101108.72
2023-03-18T17:31:55.710Z,101101.53
2023-03-18T17:34:23.830Z,101103.78
2023-03-18T17:36:50.430Z,101098.75
2023-03-18T17:39:17.293Z,101108.25
2023-03-18T17:41:43.728Z,101101.25
2023-03-18T17:44:27.205Z,101113.97
2023-03-18T17:46:57.031Z,101106.28
2023-03-18T17:49:26.689Z,101105.13
2023-03-18T17:51:55.113Z,101099.97
2023-03-18T17:54:25.367Z,101106.63
2023-03-18T17:56:52.760Z,101103.91
2023-03-18T17:59:20.667Z,101106.13
2023-03-18T18:01:49.146Z,101105.69
2023-03-18T18:04:24.783Z,101106.81
2023-03-18T18:06:51.585Z,101114.25
2023-03-18T18:09:19.379Z,101118.00
2023-03-18T18:11:50.761Z,101118.09
2023-03-18T18:14:26.180Z,101119.75
2023-03-18T18:16:56.023Z,101128.72
2023-03-18T18:19:22.997Z,101130.91
2023-03-18T18:21:50.449Z,101128.66
2023-03-18T18:24:27.664Z,101120.09
2023-03-18T18:26:54.313Z,101125.88
2023-03-18T18:29:26.572Z,101129.06
2023-03-18T18:31:53.620Z,101133.31
2023-03-18T18:34:21.284Z,101127.84
2023-03-18T18:36:49.570Z,101129.47
2023-03-18T18:39:16.118Z,101129.75
2023-03-18T18:41:42.963Z,101128.75
2023-03-18T18:44:09.432Z,101136.88
2023-03-18T18:46:36.401Z,101135.59
2023-03-18T18:49:03.291Z,101132.50
2023-03-18T18:51:30.240Z,101131.44
2023-03-18T18:53:56.704Z,101135.59
2023-03-18T18:56:32.090Z,101134.56
2023-03-18T18:58:59.178Z,101138.72
2023-03-18T19:01:25.794Z,101134.78
2023-03-18T19:03:55.683Z,101133.72
2023-03-18T19:06:26.338Z,101132.88
2023-03-18T19:08:55.380Z,101135.97
2023-03-18T19:11:23.433Z,101136.78
2023-03-18T19:13:50.764Z,101133.09
2023-03-18T19:16:30.673Z,101135.44
2023-03-18T19:18:58.125Z,101130.97
2023-03-18T19:21:24.996Z,101136.97
2023-03-18T19:23:51.473Z,101137.78
2023-03-18T19:26:18.507Z,101135.94
2023-03-18T19:29:00.051Z,101132.22
2023-03-18T19:31:30.396Z,101131.69
2023-03-18T19:33:59.360Z,101132.19
2023-03-18T19:36:28.390Z,101127.72
2023-03-18T19:38:57.745Z,101123.25
2023-03-18T19:41:25.908Z,101129.56
2023-03-18T19:43:54.375Z,101137.13
2023-03-18T19:46:27.945Z,101141.28
2023-03-18T19:48:54.418Z,101144.41
2023-03-18T19:51:21.104Z,101150.41
2023-03-18T19:53:47.811Z,101160.09
2023-03-18T19:56:33.574Z,101176.03
2023-03-18T19:59:00.284Z,101181.25
2023-03-18T20:01:27.593Z,101181.41
2023-03-18T20:04:00.791Z,101190.72
2023-03-18T20:06:27.557Z,101183.69
2023-03-18T20:08:54.212Z,101190.47
2023-03-18T20:11:23.590Z,101184.38
2023-03-18T20:13:50.171Z,101199.25
2023-03-18T20:16:18.284Z,101206.03
2023-03-18T20:18:45.694Z,101208.41
2023-03-18T20:21:38.007Z,101217.19
2023-03-18T20:24:14.694Z,101216.34
2023-03-18T20:26:41.272Z,101221.66
2023-03-18T20:29:19.818Z,101228.59
2023-03-18T20:31:46.817Z,101222.13
2023-03-18T20:34:14.225Z,101218.28
2023-03-18T20:36:41.936Z,101210.50
2023-03-18T20:39:18.904Z,101209.00
2023-03-18T20:41:45.556Z,101193.09
2023-03-18T20:44:13.229Z,101199.66
2023-03-18T20:46:41.706Z,101190.78
2023-03-18T20:49:08.350Z,101198.13
2023-03-18T20:51:38.507Z,101191.63
2023-03-18T20:54:19.595Z,101190.63
2023-03-18T20:56:46.948Z,101192.50
2023-03-18T20:59:13.819Z,101188.88
2023-03-18T21:01:41.177Z,101196.78
2023-03-18T21:04:11.751Z,101197.81
2023-03-18T21:06:38.990Z,101202.31
2023-03-18T21:09:06.665Z,101199.50
2023-03-18T21:11:33.504Z,101205.75
2023-03-18T21:13:59.957Z,101215.69
2023-03-18T21:16:27.804Z,101204.75
2023-03-18T21:18:54.354Z,101205.00
2023-03-18T21:21:24.758Z,101202.19
2023-03-18T21:23:52.338Z,101210.53
2023-03-18T21:26:18.859Z,101200.13
2023-03-18T21:28:45.389Z,101206.41
2023-03-18T21:31:20.446Z,101202.50
2023-03-18T21:33:47.330Z,101199.41
2023-03-18T21:36:13.959Z,101201.72
2023-03-18T21:38:40.805Z,101203.28
2023-03-18T21:41:19.723Z,101197.00
2023-03-18T21:43:47.034Z,101207.94
2023-03-18T21:46:17.706Z,101197.50
2023-03-18T21:48:44.415Z,101198.84
2023-03-18T21:51:37.480Z,101192.84
2023-03-18T21:54:05.038Z,101191.00
2023-03-18T21:56:31.552Z,101192.84
2023-03-18T21:58:58.088Z,101193.63
2023-03-18T22:01:29.472Z,101192.28
2023-03-18T22:03:56.270Z,101185.50
2023-03-18T22:06:22.823Z,101188.13
2023-03-18T22:08:49.459Z,101181.31
2023-03-18T22:11:18.860Z,101181.63
2023-03-18T22:13:45.989Z,101180.81
2023-03-18T22:16:17.233Z,101184.75
2023-03-18T22:18:44.872Z,101183.66
2023-03-18T22:21:20.853Z,101173.72
2023-03-18T22:23:47.369Z,101176.59
2023-03-18T22:26:16.417Z,101173.72
2023-03-18T22:28:43.529Z,101165.63
2023-03-18T22:31:17.900Z,101167.19
2023-03-18T22:33:44.501Z,101170.84
2023-03-18T22:36:13.503Z,101164.09
2023-03-18T22:38:40.252Z,101165.63
2023-03-18T22:41:17.428Z,101161.47
2023-03-18T22:43:44.210Z,101172.41
2023-03-18T22:46:11.732Z,101170.59
2023-03-18T22:48:38.596Z,101170.31
2023-03-18T22:51:06.289Z,101181.03
2023-03-18T22:53:39.882Z,101169.31
2023-03-18T22:56:09.928Z,101172.97
2023-03-18T22:58:36.672Z,101174.28
2023-03-18T23:01:03.712Z,101173.00
2023-03-18T23:03:33.834Z,101168.81
2023-03-18T23:06:02.114Z,101180.81
2023-03-18T23:08:29.527Z,101176.16
2023-03-18T23:10:58.743Z,101176.94
2023-03-18T23:13:41.700Z,101176.16
2023-03-18T23:16:17.092Z,101178.50
2023-03-18T23:18:43.791Z,101169.09
2023-03-18T23:21:17.952Z,101175.09
2023-03-18T23:23:44.816Z,101188.16
2023-03-18T23:26:11.846Z,101176.66
2023-03-18T23:28:44.354Z,101179.53
2023-03-18T23:31:11.948Z,101184.00
2023-03-18T23:33:38.771Z,101173.03
2023-03-18T23:36:05.853Z,101177.50
2023-03-18T23:38:32.405Z,101174.66
2023-03-18T23:40:58.895Z,101177.00
2023-03-18T23:43:25.753Z,101177.25
2023-03-18T23:45:52.433Z,101181.41
2023-03-18T23:48:18.967Z,101182.47
2023-03-18T23:50:46.092Z,101180.13
2023-03-18T23:53:12.616Z,101181.72
2023-03-18T23:55:39.202Z,101179.09
2023-03-18T23:58:05.857Z,101180.41
